createdAt,value
2023-02-07T00:01:30.450Z,5.10
2023-02-07T00:04:02.802Z,5.00
2023-02-07T00:06:35.571Z,4.90
2023-02-07T00:09:05.866Z,4.90
2023-02-07T00:11:35.302Z,4.80
2023-02-07T00:14:02.508Z,4.90
2023-02-07T00:16:32.225Z,4.80
2023-02-07T00:19:00.376Z,4.80
2023-02-07T00:21:28.335Z,4.90
2023-02-07T00:23:55.340Z,4.90
2023-02-07T00:26:25.050Z,4.90
2023-02-07T00:28:55.472Z,4.80
2023-02-07T00:31:30.621Z,4.80
2023-02-07T00:34:01.627Z,4.70
2023-02-07T00:36:33.534Z,4.70
2023-02-07T00:39:03.680Z,4.70
2023-02-07T00:41:31.066Z,4.80
2023-02-07T00:44:00.150Z,4.70
2023-02-07T00:46:28.053Z,4.80
2023-02-07T00:48:55.292Z,4.70
2023-02-07T00:51:24.258Z,4.70
2023-02-07T00:53:54.223Z,4.60
2023-02-07T00:56:27.518Z,4.60
2023-02-07T00:58:54.854Z,4.60
2023-02-07T01:01:24.447Z,4.60
2023-02-07T01:03:51.893Z,4.60
2023-02-07T01:06:19.116Z,4.50
2023-02-07T01:08:46.177Z,4.50
2023-02-07T01:11:16.393Z,4.50
2023-02-07T01:13:44.224Z,4.50
2023-02-07T01:16:32.627Z,4.40
2023-02-07T01:19:01.514Z,4.30
2023-02-07T01:21:29.202Z,4.20
2023-02-07T01:23:57.350Z,4.30
2023-02-07T01:26:26.331Z,4.20
2023-02-07T01:28:55.051Z,4.10
2023-02-07T01:31:23.859Z,4.10
2023-02-07T01:33:59.938Z,4.20
2023-02-07T01:36:28.751Z,4.10
2023-02-07T01:38:57.489Z,3.90
2023-02-07T01:41:28.198Z,3.80
2023-02-07T01:43:57.802Z,3.80
2023-02-07T01:46:25.911Z,3.90
2023-02-07T01:48:55.888Z,4.00
2023-02-07T01:51:23.624Z,4.10
2023-02-07T01:53:52.065Z,4.10
2023-02-07T01:56:30.776Z,4.10
2023-02-07T01:59:02.401Z,4.00
2023-02-07T02:01:32.637Z,4.00
2023-02-07T02:04:00.637Z,4.00
2023-02-07T02:06:30.663Z,4.00
2023-02-07T02:09:00.305Z,3.90
2023-02-07T02:12:05.204Z,3.90
2023-02-07T02:15:00.139Z,4.00
2023-02-07T02:17:26.938Z,3.90
2023-02-07T02:20:28.871Z,3.90
2023-02-07T02:23:17.901Z,4.00
2023-02-07T02:26:01.688Z,3.70
2023-02-07T02:28:35.191Z,3.50
2023-02-07T02:31:20.445Z,3.50
2023-02-07T02:34:05.889Z,3.50
2023-02-07T02:37:00.298Z,3.50
2023-02-07T02:40:04.102Z,3.50
2023-02-07T02:42:59.040Z,3.50
2023-02-07T02:45:39.312Z,3.50
2023-02-07T02:48:11.454Z,3.60
2023-02-07T02:50:40.005Z,3.60
2023-02-07T02:53:06.974Z,3.60
2023-02-07T02:56:21.775Z,3.60
2023-02-07T02:59:00.596Z,3.40
2023-02-07T03:01:36.361Z,3.40
2023-02-07T03:04:25.692Z,3.20
2023-02-07T03:07:20.612Z,3.10
2023-02-07T03:10:04.286Z,3.20
2023-02-07T03:12:48.618Z,3.30
2023-02-07T03:15:34.236Z,3.30
2023-02-07T03:18:15.586Z,3.20
2023-02-07T03:20:53.126Z,3.20
2023-02-07T03:23:21.614Z,3.20
2023-02-07T03:25:52.025Z,3.20
2023-02-07T03:28:21.796Z,3.20
2023-02-07T03:30:54.724Z,3.20
2023-02-07T03:33:25.421Z,3.20
2023-02-07T03:36:06.193Z,3.20
2023-02-07T03:38:33.112Z,3.20
2023-02-07T03:41:05.075Z,3.20
2023-02-07T03:43:34.955Z,3.20
2023-02-07T03:46:01.865Z,3.00
2023-02-07T03:48:28.790Z,3.00
2023-02-07T03:50:55.620Z,3.10
2023-02-07T03:53:22.558Z,2.90
2023-02-07T03:55:49.407Z,2.90
2023-02-07T03:58:16.284Z,3.00
2023-02-07T04:00:43.113Z,3.00
2023-02-07T04:03:10.388Z,2.90
2023-02-07T04:05:39.062Z,2.90
2023-02-07T04:08:06.146Z,2.80
2023-02-07T04:10:33.020Z,2.80
2023-02-07T04:13:00.870Z,2.80
2023-02-07T04:15:52.436Z,2.80
2023-02-07T04:18:19.448Z,2.80
2023-02-07T04:20:47.127Z,2.70
2023-02-07T04:23:17.940Z,2.70
2023-02-07T04:25:46.829Z,2.60
2023-02-07T04:28:14.773Z,2.60
2023-02-07T04:30:42.621Z,2.70
2023-02-07T04:33:09.588Z,2.60
2023-02-07T04:35:36.895Z,2.50
2023-02-07T04:38:10.815Z,2.60
2023-02-07T04:40:39.599Z,2.60
2023-02-07T04:43:07.768Z,2.70
2023-02-07T04:45:48.445Z,2.60
2023-02-07T04:48:19.316Z,2.40
2023-02-07T04:50:46.196Z,2.40
2023-02-07T04:53:14.588Z,2.50
2023-02-07T04:55:41.907Z,2.50
2023-02-07T04:58:09.229Z,2.50
2023-02-07T05:00:36.073Z,2.60
2023-02-07T05:03:03.050Z,2.60
2023-02-07T05:05:29.933Z,2.40
2023-02-07T05:07:57.105Z,2.30
2023-02-07T05:10:25.368Z,2.40
2023-02-07T05:12:52.344Z,2.30
2023-02-07T05:15:20.225Z,2.40
2023-02-07T05:17:49.649Z,2.40
2023-02-07T05:20:16.741Z,2.40
2023-02-07T05:22:43.627Z,2.40
2023-02-07T05:25:12.076Z,2.50
2023-02-07T05:27:38.902Z,2.50
2023-02-07T05:30:07.587Z,2.30
2023-02-07T05:32:53.421Z,2.40
2023-02-07T05:35:20.530Z,2.40
2023-02-07T05:37:47.960Z,2.40
2023-02-07T05:40:14.867Z,2.30
2023-02-07T05:42:42.681Z,2.30
2023-02-07T05:45:11.472Z,2.30
2023-02-07T05:47:38.361Z,2.30
2023-02-07T05:50:05.818Z,2.30
2023-02-07T05:52:35.951Z,2.30
2023-02-07T05:55:03.884Z,2.30
2023-02-07T05:57:31.356Z,2.40
2023-02-07T05:59:58.244Z,2.30
2023-02-07T06:02:27.176Z,2.30
2023-02-07T06:04:54.630Z,2.30
2023-02-07T06:07:22.620Z,2.30
2023-02-07T06:09:49.461Z,2.30
2023-02-07T06:12:16.297Z,2.30
2023-02-07T06:14:43.139Z,2.20
2023-02-07T06:17:14.007Z,2.20
2023-02-07T06:19:40.965Z,2.30
2023-02-07T06:22:07.771Z,2.30
2023-02-07T06:24:34.605Z,2.30
2023-02-07T06:27:01.672Z,2.30
2023-02-07T06:29:28.619Z,2.40
2023-02-07T06:31:55.529Z,2.30
2023-02-07T06:34:23.416Z,2.30
2023-02-07T06:36:50.364Z,2.30
2023-02-07T06:39:20.485Z,2.40
2023-02-07T06:41:48.103Z,2.40
2023-02-07T06:44:15.160Z,2.30
2023-02-07T06:46:42.000Z,2.30
2023-02-07T06:49:08.785Z,2.30
2023-02-07T06:51:36.020Z,2.30
2023-02-07T06:54:09.967Z,2.30
2023-02-07T06:56:38.430Z,2.30
2023-02-07T06:59:10.114Z,2.20
2023-02-07T07:01:37.527Z,2.20
2023-02-07T07:04:04.448Z,2.20
2023-02-07T07:06:33.853Z,2.20
2023-02-07T07:09:03.923Z,2.10
2023-02-07T07:11:30.946Z,2.20
2023-02-07T07:13:58.439Z,2.20
2023-02-07T07:16:25.511Z,2.20
2023-02-07T07:18:53.845Z,2.20
2023-02-07T07:21:21.780Z,2.10
2023-02-07T07:23:48.709Z,2.00
2023-02-07T07:26:16.706Z,2.10
2023-02-07T07:28:45.936Z,2.10
2023-02-07T07:31:15.829Z,2.10
2023-02-07T07:33:46.580Z,2.20
2023-02-07T07:36:15.463Z,2.20
2023-02-07T07:38:45.985Z,2.10
2023-02-07T07:41:15.330Z,2.20
2023-02-07T07:43:42.313Z,2.30
2023-02-07T07:46:09.752Z,2.20
2023-02-07T07:48:36.836Z,2.30
2023-02-07T07:51:04.165Z,2.30
2023-02-07T07:53:31.132Z,2.20
2023-02-07T07:55:58.696Z,2.00
2023-02-07T07:58:29.006Z,2.00
2023-02-07T08:00:56.218Z,1.90
2023-02-07T08:03:24.349Z,1.80
2023-02-07T08:05:52.540Z,1.60
2023-02-07T08:08:21.164Z,1.60
2023-02-07T08:10:50.702Z,1.70
2023-02-07T08:13:18.495Z,1.80
2023-02-07T08:15:48.072Z,1.90
2023-02-07T08:18:27.275Z,2.10
2023-02-07T08:20:57.926Z,2.20
2023-02-07T08:23:25.063Z,2.10
2023-02-07T08:25:52.789Z,2.10
2023-02-07T08:28:21.058Z,2.20
2023-02-07T08:30:48.453Z,2.20
2023-02-07T08:33:16.583Z,2.40
2023-02-07T08:35:43.673Z,2.40
2023-02-07T08:38:11.650Z,2.40
2023-02-07T08:40:41.908Z,2.40
2023-02-07T08:43:12.516Z,2.40
2023-02-07T08:45:40.872Z,2.30
2023-02-07T08:48:10.007Z,2.40
2023-02-07T08:50:40.165Z,2.40
2023-02-07T08:53:12.683Z,2.40
2023-02-07T08:55:44.113Z,2.40
2023-02-07T08:58:12.669Z,2.40
2023-02-07T09:00:43.841Z,2.50
2023-02-07T09:03:12.373Z,2.70
2023-02-07T09:05:40.394Z,2.60
2023-02-07T09:08:07.243Z,2.80
2023-02-07T09:10:36.136Z,3.00
2023-02-07T09:13:11.755Z,3.00
2023-02-07T09:15:40.006Z,3.10
2023-02-07T09:18:07.021Z,2.90
2023-02-07T09:20:33.924Z,3.00
2023-02-07T09:23:19.358Z,3.00
2023-02-07T09:25:49.716Z,3.00
2023-02-07T09:28:19.752Z,3.10
2023-02-07T09:30:48.781Z,3.10
2023-02-07T09:33:19.696Z,3.10
2023-02-07T09:35:47.408Z,3.30
2023-02-07T09:38:17.429Z,3.30
2023-02-07T09:40:45.751Z,3.40
2023-02-07T09:43:18.962Z,3.20
2023-02-07T09:45:58.227Z,3.10
2023-02-07T09:48:49.136Z,3.10
2023-02-07T09:51:21.327Z,3.00
2023-02-07T09:54:24.106Z,3.10
2023-02-07T09:56:57.030Z,3.30
2023-02-07T09:59:46.046Z,3.50
2023-02-07T10:02:22.985Z,3.40
2023-02-07T10:04:54.669Z,3.40
2023-02-07T10:07:23.225Z,3.50
2023-02-07T10:09:54.005Z,3.60
2023-02-07T10:12:44.740Z,3.80
2023-02-07T10:15:27.878Z,3.70
2023-02-07T10:18:38.411Z,3.90
2023-02-07T10:21:31.814Z,4.00
2023-02-07T10:24:52.667Z,4.20
2023-02-07T10:27:45.367Z,4.40
2023-02-07T10:30:38.928Z,4.40
2023-02-07T10:33:20.401Z,4.40
2023-02-07T10:35:49.808Z,4.30
2023-02-07T10:38:31.106Z,4.10
2023-02-07T10:41:21.935Z,3.90
2023-02-07T10:43:52.540Z,4.00
2023-02-07T10:46:22.519Z,4.10
2023-02-07T10:48:54.297Z,4.20
2023-02-07T10:51:41.613Z,4.30
2023-02-07T10:54:24.625Z,4.80
2023-02-07T10:57:15.065Z,6.00
2023-02-07T10:59:46.797Z,7.40
2023-02-07T11:02:39.038Z,8.00
2023-02-07T11:05:24.420Z,8.00
2023-02-07T11:07:56.489Z,8.80
2023-02-07T11:10:37.414Z,9.60
2023-02-07T11:16:39.584Z,11.50
2023-02-07T11:19:07.627Z,12.50
2023-02-07T11:21:34.818Z,12.80
2023-02-07T11:24:07.250Z,12.50
2023-02-07T11:26:40.048Z,12.40
2023-02-07T11:29:20.500Z,13.30
2023-02-07T11:35:09.432Z,14.70
2023-02-07T11:38:12.990Z,15.40
2023-02-07T11:40:44.523Z,15.70
2023-02-07T11:43:26.923Z,16.00
2023-02-07T11:45:59.588Z,15.90
2023-02-07T11:48:38.600Z,15.20
2023-02-07T11:51:18.473Z,15.70
2023-02-07T11:54:00.711Z,16.20
2023-02-07T11:56:34.069Z,17.00
2023-02-07T11:59:26.051Z,17.90
2023-02-07T12:01:59.827Z,18.10
2023-02-07T12:04:34.526Z,18.20
2023-02-07T12:07:04.415Z,18.30
2023-02-07T12:09:38.421Z,18.60
2023-02-07T12:12:17.610Z,18.60
2023-02-07T12:14:55.479Z,17.40
2023-02-07T12:17:34.639Z,18.10
2023-02-07T12:20:25.482Z,18.70
2023-02-07T12:23:40.887Z,18.40
2023-02-07T12:26:33.559Z,17.80
2023-02-07T12:29:13.808Z,18.20
2023-02-07T12:32:04.915Z,18.80
2023-02-07T12:35:13.378Z,18.90
2023-02-07T12:37:58.297Z,18.70
2023-02-07T12:40:54.250Z,17.60
2023-02-07T12:43:42.715Z,16.80
2023-02-07T12:46:29.682Z,16.60
2023-02-07T12:49:36.116Z,16.80
2023-02-07T12:52:21.460Z,16.90
2023-02-07T12:55:26.671Z,17.20
2023-02-07T12:58:14.760Z,16.80
2023-02-07T13:01:35.489Z,15.80
2023-02-07T13:04:27.720Z,14.70
2023-02-07T13:06:57.969Z,13.40
2023-02-07T13:09:33.661Z,12.60
2023-02-07T13:12:39.537Z,11.90
2023-02-07T13:16:02.011Z,11.00
2023-02-07T13:19:17.508Z,10.30
2023-02-07T13:22:24.708Z,9.80
2023-02-07T13:24:56.443Z,9.50
2023-02-07T13:30:35.893Z,8.90
2023-02-07T13:37:11.250Z,8.60
2023-02-07T13:55:15.209Z,7.90
2023-02-07T13:58:32.322Z,7.80
2023-02-07T14:01:30.203Z,7.80
2023-02-07T14:04:13.529Z,7.80
2023-02-07T14:07:54.680Z,7.80
2023-02-07T14:13:34.570Z,7.50
2023-02-07T14:16:18.649Z,7.40
2023-02-07T14:19:12.957Z,7.40
2023-02-07T14:21:57.441Z,7.50
2023-02-07T14:24:46.879Z,7.40
2023-02-07T14:27:44.604Z,7.50
2023-02-07T14:30:30.979Z,7.50
2023-02-07T14:33:14.604Z,7.60
2023-02-07T14:36:14.473Z,7.50
2023-02-07T14:39:01.059Z,7.60
2023-02-07T14:41:41.181Z,7.50
2023-02-07T14:44:27.536Z,7.40
2023-02-07T14:47:02.589Z,7.40
2023-02-07T14:49:48.941Z,7.40
2023-02-07T14:52:31.793Z,7.50
2023-02-07T14:55:19.529Z,7.60
2023-02-07T14:58:08.423Z,7.60
2023-02-07T15:00:57.091Z,7.70
2023-02-07T15:03:24.562Z,7.60
2023-02-07T15:06:31.671Z,7.50
2023-02-07T15:09:01.814Z,7.40
2023-02-07T15:11:30.787Z,7.40
2023-02-07T15:14:06.395Z,7.40
2023-02-07T15:16:42.532Z,7.40
2023-02-07T15:19:32.563Z,7.30
2023-02-07T15:22:25.720Z,7.50
2023-02-07T15:24:59.351Z,7.50
2023-02-07T15:27:29.451Z,7.50
2023-02-07T15:30:01.613Z,7.50
2023-02-07T15:32:35.768Z,7.50
2023-02-07T15:38:26.346Z,7.40
2023-02-07T15:40:58.724Z,7.40
2023-02-07T15:43:30.257Z,7.40
2023-02-07T15:46:00.495Z,7.50
2023-02-07T15:48:31.620Z,7.30
2023-02-07T15:51:02.442Z,7.30
2023-02-07T15:53:30.818Z,7.40
2023-02-07T15:56:00.936Z,7.30
2023-02-07T15:58:33.437Z,7.30
2023-02-07T16:01:07.530Z,7.30
2023-02-07T16:03:44.266Z,7.30
2023-02-07T16:06:30.130Z,7.30
2023-02-07T16:09:05.822Z,7.20
2023-02-07T16:14:47.975Z,7.10
2023-02-07T16:17:37.834Z,7.10
2023-02-07T16:20:13.919Z,7.10
2023-02-07T16:22:58.464Z,6.90
2023-02-07T16:25:34.555Z,6.90
2023-02-07T16:28:12.152Z,7.00
2023-02-07T16:30:43.218Z,7.10
2023-02-07T16:33:23.085Z,7.10
2023-02-07T16:38:47.290Z,6.90
2023-02-07T16:41:35.655Z,6.90
2023-02-07T16:44:18.234Z,6.90
2023-02-07T16:46:56.320Z,6.70
2023-02-07T16:49:29.959Z,6.70
2023-02-07T16:51:58.141Z,6.50
2023-02-07T16:54:26.248Z,6.50
2023-02-07T16:57:02.624Z,6.40
2023-02-07T16:59:56.750Z,6.40
2023-02-07T17:02:28.880Z,6.60
2023-02-07T17:04:57.441Z,6.40
2023-02-07T17:07:25.000Z,6.40
2023-02-07T17:09:52.603Z,6.30
2023-02-07T17:12:20.959Z,6.20
2023-02-07T17:14:48.396Z,6.10
2023-02-07T17:17:16.297Z,6.00
2023-02-07T17:19:57.392Z,5.80
2023-02-07T17:22:26.390Z,5.90
2023-02-07T17:25:02.693Z,5.80
2023-02-07T17:27:50.953Z,5.80
2023-02-07T17:30:38.489Z,5.80
2023-02-07T17:33:09.215Z,5.80
2023-02-07T17:35:37.103Z,5.80
2023-02-07T17:38:05.758Z,5.90
2023-02-07T17:40:39.362Z,5.90
2023-02-07T17:43:08.274Z,5.80
2023-02-07T17:45:37.964Z,5.80
2023-02-07T17:48:05.623Z,5.80
2023-02-07T17:50:41.277Z,5.80
2023-02-07T17:53:13.231Z,5.70
2023-02-07T17:55:41.285Z,5.60
2023-02-07T17:58:39.776Z,5.70
2023-02-07T18:01:07.933Z,5.50
2023-02-07T18:03:35.441Z,5.60
2023-02-07T18:06:05.695Z,5.60
2023-02-07T18:08:35.131Z,5.50
2023-02-07T18:11:07.204Z,5.40
2023-02-07T18:13:34.584Z,5.50
2023-02-07T18:19:26.729Z,5.30
2023-02-07T18:21:54.111Z,5.30
2023-02-07T18:24:33.095Z,5.20
2023-02-07T18:27:01.530Z,5.20
2023-02-07T18:29:32.292Z,5.10
2023-02-07T18:31:59.948Z,5.10
2023-02-07T18:34:40.164Z,5.10
2023-02-07T18:37:08.639Z,5.00
2023-02-07T18:39:45.785Z,5.00
2023-02-07T18:42:17.370Z,5.10
2023-02-07T18:44:46.019Z,5.20
2023-02-07T18:47:14.320Z,5.10
2023-02-07T18:49:41.408Z,5.10
2023-02-07T18:52:08.303Z,5.00
2023-02-07T18:54:36.921Z,4.90
2023-02-07T18:57:09.051Z,4.90
2023-02-07T19:00:07.692Z,4.90
2023-02-07T19:02:37.238Z,4.80
2023-02-07T19:05:04.641Z,4.90
2023-02-07T19:07:34.308Z,4.90
2023-02-07T19:10:06.935Z,5.00
2023-02-07T19:12:33.733Z,5.10
2023-02-07T19:15:01.607Z,5.00
2023-02-07T19:17:29.732Z,5.10
2023-02-07T19:20:00.305Z,5.10
2023-02-07T19:22:35.506Z,4.90
2023-02-07T19:25:07.767Z,4.90
2023-02-07T19:27:34.990Z,4.80
2023-02-07T19:30:06.756Z,4.70
2023-02-07T19:33:01.158Z,4.80
2023-02-07T19:35:29.682Z,4.80
2023-02-07T19:38:23.888Z,4.80
2023-02-07T19:40:58.497Z,4.80
2023-02-07T19:43:29.103Z,4.80
2023-02-07T19:45:56.407Z,4.80
2023-02-07T19:48:25.599Z,4.80
2023-02-07T19:51:11.416Z,4.80
2023-02-07T19:53:44.596Z,4.90
2023-02-07T19:56:13.130Z,4.90
2023-02-07T19:58:56.949Z,4.90
2023-02-07T20:02:24.338Z,4.80
2023-02-07T20:04:56.072Z,4.80
2023-02-07T20:07:29.507Z,4.70
2023-02-07T20:10:01.069Z,4.60
2023-02-07T20:12:28.260Z,4.70
2023-02-07T20:15:02.337Z,4.60
2023-02-07T20:17:30.981Z,4.50
2023-02-07T20:19:58.258Z,4.50
2023-02-07T20:22:32.328Z,4.50
2023-02-07T20:25:02.153Z,4.50
2023-02-07T20:27:30.215Z,4.40
2023-02-07T20:29:57.686Z,4.40
2023-02-07T20:32:25.513Z,4.40
2023-02-07T20:34:52.429Z,4.40
2023-02-07T20:37:19.498Z,4.30
2023-02-07T20:39:48.795Z,4.40
2023-02-07T20:42:17.765Z,4.40
2023-02-07T20:44:45.940Z,4.40
2023-02-07T20:47:17.607Z,4.40
2023-02-07T20:49:46.921Z,4.30
2023-02-07T20:52:14.964Z,4.20
2023-02-07T20:54:47.068Z,4.20
2023-02-07T20:57:17.740Z,4.20
2023-02-07T21:02:27.327Z,4.10
2023-02-07T21:04:55.033Z,4.20
2023-02-07T21:07:27.666Z,4.10
2023-02-07T21:09:55.712Z,4.20
2023-02-07T21:12:24.559Z,4.20
2023-02-07T21:15:03.452Z,4.10
2023-02-07T21:17:31.700Z,4.10
2023-02-07T21:20:05.898Z,4.10
2023-02-07T21:22:35.691Z,4.10
2023-02-07T21:25:04.814Z,3.90
2023-02-07T21:27:31.764Z,3.90
2023-02-07T21:29:59.750Z,3.80
2023-02-07T21:32:26.704Z,3.70
2023-02-07T21:34:53.586Z,3.60
2023-02-07T21:37:24.187Z,3.60
2023-02-07T21:39:53.331Z,3.60
2023-02-07T21:42:20.873Z,3.70
2023-02-07T21:44:48.928Z,3.70
2023-02-07T21:47:20.317Z,3.70
2023-02-07T21:49:48.653Z,3.80
2023-02-07T21:52:20.158Z,3.70
2023-02-07T21:54:48.328Z,3.80
2023-02-07T21:57:29.261Z,3.80
2023-02-07T21:59:56.549Z,3.70
2023-02-07T22:02:24.449Z,3.70
2023-02-07T22:04:54.559Z,3.60
2023-02-07T22:07:22.091Z,3.50
2023-02-07T22:09:51.631Z,3.50
2023-02-07T22:12:19.729Z,3.60
2023-02-07T22:14:47.274Z,3.60
2023-02-07T22:17:15.390Z,3.60
2023-02-07T22:19:43.581Z,3.60
2023-02-07T22:22:11.176Z,3.60
2023-02-07T22:27:31.296Z,3.60
2023-02-07T22:30:00.503Z,3.60
2023-02-07T22:32:27.961Z,3.60
2023-02-07T22:34:59.908Z,3.50
2023-02-07T22:37:29.969Z,3.60
2023-02-07T22:42:46.139Z,3.60
2023-02-07T22:45:13.104Z,3.50
2023-02-07T22:47:42.321Z,3.50
2023-02-07T22:50:09.756Z,3.50
2023-02-07T22:52:37.484Z,3.30
2023-02-07T22:55:09.903Z,3.30
2023-02-07T22:57:40.533Z,3.10
2023-02-07T23:00:13.748Z,3.20
2023-02-07T23:02:41.028Z,3.30
2023-02-07T23:05:12.683Z,3.30
2023-02-07T23:07:42.036Z,3.30
2023-02-07T23:10:10.721Z,3.30
2023-02-07T23:12:39.309Z,3.30
2023-02-07T23:15:06.926Z,3.30
2023-02-07T23:17:34.250Z,3.30
2023-02-07T23:20:01.142Z,3.40
2023-02-07T23:22:28.987Z,3.50
2023-02-07T23:24:57.363Z,3.40
2023-02-07T23:27:28.031Z,3.40
2023-02-07T23:29:59.216Z,3.30
2023-02-07T23:32:28.629Z,3.10
2023-02-07T23:34:55.478Z,3.10
2023-02-07T23:37:24.578Z,3.10
2023-02-07T23:39:51.773Z,3.00
2023-02-07T23:42:21.819Z,3.00
2023-02-07T23:44:51.484Z,2.80
2023-02-07T23:47:20.318Z,2.60
2023-02-07T23:49:47.402Z,2.60
2023-02-07T23:52:14.394Z,2.60
2023-02-07T23:54:43.232Z,2.60
2023-02-07T23:57:11.180Z,2.60
2023-02-07T23:59:38.018Z,2.50
